Allbright, Missouri
Current Conditions -  °F | °C
As of 11:55 AM on Saturday 20 Dec 2014 (Local Time) from KFAM Reporting Station
Overcast Overcast  
Wind Chill: 36°   Ceiling: 1800
Heat Index: 39°   Visibility: 10mi
Dew Point: 34°   Wind: 5mph
Humidity: 81%   Direction: 120°ESE
Pressure: 30.25"   Gusts: NA
Location:  37.4061°N, 90.1985°W
Report Text: KFAM 201755Z AUTO 12004KT 10SM OVC018 04/01 A3025 RMK AO1 10040 20010 57010
Loading
Personal Weather Stations






























Interactive Weather Map New forecast layout! Learn more

10-Day Weather Forecast

Advertisements
Track Severe Weather on mobile